createdAt,value
2023-04-27T00:00:09.325Z,81.9502
2023-04-27T00:01:10.140Z,81.3976
2023-04-27T00:02:11.132Z,82.5359
2023-04-27T00:03:12.057Z,82.7582
2023-04-27T00:04:13.164Z,83.6847
2023-04-27T00:05:14.453Z,83.5705
2023-04-27T00:06:15.697Z,81.6252
2023-04-27T00:07:16.580Z,82.0306
2023-04-27T00:08:17.363Z,84.6306
2023-04-27T00:09:18.191Z,84.8852
2023-04-27T00:10:18.976Z,84.4562
2023-04-27T00:11:19.836Z,84.3938
2023-04-27T00:12:20.662Z,84.2019
2023-04-27T00:13:21.487Z,84.7777
2023-04-27T00:14:22.314Z,84.8593
2023-04-27T00:15:23.175Z,85.0663
2023-04-27T00:16:23.966Z,85.1332
2023-04-27T00:17:24.868Z,86.3227
2023-04-27T00:18:25.616Z,85.4124
2023-04-27T00:19:26.506Z,85.9708
2023-04-27T00:20:27.322Z,85.6537
2023-04-27T00:21:28.137Z,85.5046
2023-04-27T00:22:29.052Z,85.5084
2023-04-27T00:23:29.859Z,85.1246
2023-04-27T00:24:30.649Z,86.2941
2023-04-27T00:25:31.554Z,86.3267
2023-04-27T00:26:32.415Z,86.5175
2023-04-27T00:27:33.264Z,86.5665
2023-04-27T00:28:34.127Z,86.0424
2023-04-27T00:29:34.961Z,86.5202
2023-04-27T00:30:35.772Z,85.2903
2023-04-27T00:31:36.659Z,85.1017
2023-04-27T00:32:37.562Z,83.7578
2023-04-27T00:33:38.339Z,84.5876
2023-04-27T00:34:39.189Z,84.1666
2023-04-27T00:35:40.011Z,83.9267
2023-04-27T00:36:40.799Z,84.8151
2023-04-27T00:37:41.676Z,84.8101
2023-04-27T00:38:42.447Z,84.7551
2023-04-27T00:39:43.270Z,84.7088
2023-04-27T00:40:44.077Z,84.9338
2023-04-27T00:41:44.887Z,83.4974
2023-04-27T00:42:45.739Z,83.5198
2023-04-27T00:43:46.547Z,84.2526
2023-04-27T00:44:47.315Z,83.7456
2023-04-27T00:45:48.170Z,83.7846
2023-04-27T00:46:48.976Z,83.0740
2023-04-27T00:47:49.833Z,82.7355
2023-04-27T00:48:50.676Z,81.7921
2023-04-27T00:49:51.567Z,82.2156
2023-04-27T00:50:52.427Z,82.6213
2023-04-27T00:51:53.244Z,82.7275
2023-04-27T00:52:54.030Z,82.8642
2023-04-27T00:53:54.840Z,82.7280
2023-04-27T00:54:55.724Z,82.9458
2023-04-27T00:55:56.518Z,82.4212
2023-04-27T00:56:57.317Z,82.3285
2023-04-27T00:57:58.144Z,82.4340
2023-04-27T00:58:58.933Z,82.6697
2023-04-27T00:59:59.789Z,82.9020
2023-04-27T01:01:00.616Z,82.6227
2023-04-27T01:02:01.444Z,83.0219
2023-04-27T01:03:02.337Z,83.4498
2023-04-27T01:04:03.492Z,83.4060
2023-04-27T01:05:04.609Z,83.6243
2023-04-27T01:06:05.443Z,83.1430
2023-04-27T01:07:06.246Z,83.4801
2023-04-27T01:08:07.078Z,83.2654
2023-04-27T01:09:07.946Z,83.7630
2023-04-27T01:10:08.902Z,84.5938
2023-04-27T01:11:09.794Z,84.3904
2023-04-27T01:12:10.623Z,84.8658
2023-04-27T01:13:11.557Z,84.8611
2023-04-27T01:14:12.354Z,84.8872
2023-04-27T01:15:13.182Z,84.9525
2023-04-27T01:16:14.072Z,84.3313
2023-04-27T01:17:14.926Z,84.5680
2023-04-27T01:18:15.795Z,85.3938
2023-04-27T01:19:16.640Z,86.4778
2023-04-27T01:20:17.515Z,86.1119
2023-04-27T01:21:18.329Z,86.2758
2023-04-27T01:22:19.242Z,86.6305
2023-04-27T01:23:20.112Z,87.3903
2023-04-27T01:24:20.967Z,87.1717
2023-04-27T01:25:21.868Z,86.3023
2023-04-27T01:26:22.688Z,86.7810
2023-04-27T01:27:23.606Z,86.6726
2023-04-27T01:28:24.527Z,85.7060
2023-04-27T01:29:25.388Z,85.2970
2023-04-27T01:30:26.250Z,85.2277
2023-04-27T01:31:27.206Z,85.7869
2023-04-27T01:32:28.117Z,86.0249
2023-04-27T01:33:28.999Z,86.6763
2023-04-27T01:34:29.839Z,87.3103
2023-04-27T01:35:30.720Z,85.8572
2023-04-27T01:36:31.600Z,85.5424
2023-04-27T01:37:32.472Z,85.4882
2023-04-27T01:38:33.470Z,85.0858
2023-04-27T01:39:34.305Z,85.1741
2023-04-27T01:40:35.153Z,84.8536
2023-04-27T01:41:36.025Z,86.1104
2023-04-27T01:42:36.965Z,86.7947
2023-04-27T01:43:37.794Z,87.4108
2023-04-27T01:44:38.610Z,87.8255
2023-04-27T01:45:39.441Z,88.1666
2023-04-27T01:46:40.366Z,87.5474
2023-04-27T01:47:41.275Z,88.3456
2023-04-27T01:48:42.168Z,88.2349
2023-04-27T01:49:43.001Z,87.1208
2023-04-27T01:50:43.946Z,86.8319
2023-04-27T01:51:44.876Z,86.6205
2023-04-27T01:52:45.752Z,87.3944
2023-04-27T01:53:46.615Z,87.6769
2023-04-27T01:54:47.486Z,86.5902
2023-04-27T01:55:48.524Z,87.2712
2023-04-27T01:56:49.389Z,87.9601
2023-04-27T01:57:50.278Z,88.0971
2023-04-27T01:58:51.120Z,88.2789
2023-04-27T01:59:51.975Z,87.6447
2023-04-27T02:00:52.856Z,88.3014
2023-04-27T02:01:53.827Z,89.4005
2023-04-27T02:02:54.806Z,89.4256
2023-04-27T02:03:55.929Z,88.6044
2023-04-27T02:04:57.161Z,89.3876
2023-04-27T02:05:58.055Z,91.1006
2023-04-27T02:06:58.941Z,89.7860
2023-04-27T02:07:59.838Z,89.9716
2023-04-27T02:09:00.699Z,90.4641
2023-04-27T02:10:01.641Z,90.8336
2023-04-27T02:11:02.522Z,91.2585
2023-04-27T02:12:03.411Z,91.1929
2023-04-27T02:13:04.291Z,90.2646
2023-04-27T02:14:05.200Z,90.3036
2023-04-27T02:15:06.068Z,89.4426
2023-04-27T02:16:06.966Z,89.0845
2023-04-27T02:17:07.810Z,89.1861
2023-04-27T02:18:08.721Z,89.9965
2023-04-27T02:19:09.565Z,90.0174
2023-04-27T02:20:10.388Z,89.2590
2023-04-27T02:21:11.284Z,90.2077
2023-04-27T02:22:12.151Z,90.9558
2023-04-27T02:23:13.124Z,91.2252
2023-04-27T02:24:14.011Z,90.9443
2023-04-27T02:25:14.911Z,90.7478
2023-04-27T02:26:15.835Z,90.5497
2023-04-27T02:27:16.681Z,89.3750
2023-04-27T02:28:18.003Z,90.1190
2023-04-27T02:29:19.562Z,90.0605
2023-04-27T02:30:21.033Z,89.0618
2023-04-27T02:31:22.405Z,88.9145
2023-04-27T02:32:23.311Z,89.6620
2023-04-27T02:33:24.218Z,90.1203
2023-04-27T02:34:25.144Z,90.6732
2023-04-27T02:35:26.019Z,90.6468
2023-04-27T02:36:26.953Z,91.2983
2023-04-27T02:37:27.866Z,91.0104
2023-04-27T02:38:28.757Z,91.1173
2023-04-27T02:39:29.662Z,91.2300
2023-04-27T02:40:30.548Z,91.5353
2023-04-27T02:41:31.481Z,91.4165
2023-04-27T02:42:32.419Z,90.7069
2023-04-27T02:43:33.308Z,90.7842
2023-04-27T02:44:34.315Z,90.2154
2023-04-27T02:45:35.212Z,90.4426
2023-04-27T02:46:36.078Z,90.6609
2023-04-27T02:47:37.000Z,90.0126
2023-04-27T02:48:37.883Z,90.0742
2023-04-27T02:49:38.798Z,89.9384
2023-04-27T02:50:39.600Z,90.1482
2023-04-27T02:51:40.425Z,90.2458
2023-04-27T02:52:41.264Z,90.4713
2023-04-27T02:53:42.184Z,90.5258
2023-04-27T02:54:43.139Z,89.3882
2023-04-27T02:55:44.057Z,89.7333
2023-04-27T02:56:44.952Z,90.1291
2023-04-27T02:57:45.830Z,90.3166
2023-04-27T02:58:46.666Z,91.3529
2023-04-27T02:59:47.504Z,91.3198
2023-04-27T03:00:48.962Z,91.1645
2023-04-27T03:01:50.096Z,91.4296
2023-04-27T03:02:51.075Z,90.7966
2023-04-27T03:03:52.131Z,91.3026
2023-04-27T03:04:53.256Z,92.4767
2023-04-27T03:05:54.119Z,93.3057
2023-04-27T03:06:54.996Z,93.3786
2023-04-27T03:07:55.884Z,93.1332
2023-04-27T03:08:56.769Z,92.3905
2023-04-27T03:09:57.702Z,90.8793
2023-04-27T03:10:58.593Z,91.0537
2023-04-27T03:11:59.482Z,91.3490
2023-04-27T03:13:00.330Z,90.5877
2023-04-27T03:14:01.337Z,90.6161
2023-04-27T03:15:02.228Z,90.2128
2023-04-27T03:16:03.143Z,90.1957
2023-04-27T03:17:04.020Z,89.9148
2023-04-27T03:18:04.941Z,90.5338
2023-04-27T03:19:05.796Z,90.6385
2023-04-27T03:20:06.978Z,90.5653
2023-04-27T03:21:07.941Z,90.3301
2023-04-27T03:22:08.876Z,90.4852
2023-04-27T03:23:09.789Z,91.1172
2023-04-27T03:24:10.632Z,91.0587
2023-04-27T03:25:11.567Z,90.1627
2023-04-27T03:26:12.440Z,90.3987
2023-04-27T03:27:13.305Z,90.6620
2023-04-27T03:28:14.163Z,90.7193
2023-04-27T03:29:15.256Z,90.8512
2023-04-27T03:30:16.479Z,90.6240
2023-04-27T03:31:17.442Z,91.0770
2023-04-27T03:32:18.530Z,91.3170
2023-04-27T03:33:19.516Z,91.4196
2023-04-27T03:34:20.437Z,91.8748
2023-04-27T03:35:21.286Z,91.8175
2023-04-27T03:36:22.153Z,91.9210
2023-04-27T03:37:23.030Z,92.7470
2023-04-27T03:38:23.897Z,93.0922
2023-04-27T03:39:24.879Z,93.0445
2023-04-27T03:40:25.756Z,93.1462
2023-04-27T03:41:26.640Z,93.4512
2023-04-27T03:42:27.490Z,94.0044
2023-04-27T03:43:28.377Z,94.2272
2023-04-27T03:44:29.320Z,94.0871
2023-04-27T03:45:30.198Z,94.1582
2023-04-27T03:46:31.160Z,94.6021
2023-04-27T03:47:32.080Z,94.2098
2023-04-27T03:48:33.082Z,93.7797
2023-04-27T03:49:33.954Z,93.6726
2023-04-27T03:50:34.861Z,92.9564
2023-04-27T03:51:35.697Z,92.8455
2023-04-27T03:52:36.558Z,93.3614
2023-04-27T03:53:37.462Z,92.6721
2023-04-27T03:54:38.357Z,92.2662
2023-04-27T03:55:39.229Z,91.4273
2023-04-27T03:56:40.092Z,90.2132
2023-04-27T03:57:41.044Z,90.2690
2023-04-27T03:58:42.009Z,90.0139
2023-04-27T03:59:42.953Z,89.4900
2023-04-27T04:00:43.875Z,89.5770
2023-04-27T04:01:44.786Z,89.6283
2023-04-27T04:02:45.798Z,89.1436
2023-04-27T04:03:47.173Z,90.0671
2023-04-27T04:04:48.270Z,90.7754
2023-04-27T04:05:49.277Z,90.7354
2023-04-27T04:06:50.211Z,90.4307
2023-04-27T04:07:51.051Z,89.7631
2023-04-27T04:08:51.999Z,89.1819
2023-04-27T04:09:52.848Z,89.4560
2023-04-27T04:10:53.731Z,89.9224
2023-04-27T04:11:54.629Z,89.8998
2023-04-27T04:12:55.628Z,90.1559
2023-04-27T04:13:56.740Z,91.3193
2023-04-27T04:14:57.676Z,91.4227
2023-04-27T04:15:58.682Z,90.9941
2023-04-27T04:16:59.545Z,91.1885
2023-04-27T04:18:00.641Z,91.3775
2023-04-27T04:19:01.587Z,90.9083
2023-04-27T04:20:02.515Z,90.2078
2023-04-27T04:21:03.407Z,90.2066
2023-04-27T04:22:04.345Z,89.9932
2023-04-27T04:23:05.294Z,91.2026
2023-04-27T04:24:06.182Z,91.5651
2023-04-27T04:25:06.984Z,91.2374
2023-04-27T04:26:07.889Z,91.2066
2023-04-27T04:27:08.841Z,90.6068
2023-04-27T04:28:09.717Z,90.7627
2023-04-27T04:29:11.137Z,91.2511
2023-04-27T04:30:12.337Z,91.1019
2023-04-27T04:31:13.292Z,91.5541
2023-04-27T04:32:14.133Z,91.5152
2023-04-27T04:33:15.198Z,92.0436
2023-04-27T04:34:16.052Z,92.5365
2023-04-27T04:35:16.955Z,92.0421
2023-04-27T04:36:17.826Z,91.6487
2023-04-27T04:37:18.770Z,91.5515
2023-04-27T04:38:19.615Z,91.5847
2023-04-27T04:39:20.551Z,91.1810
2023-04-27T04:40:21.418Z,91.0973
2023-04-27T04:41:22.330Z,91.1725
2023-04-27T04:42:23.272Z,90.5244
2023-04-27T04:43:24.135Z,90.1228
2023-04-27T04:44:25.090Z,90.2655
2023-04-27T04:45:25.969Z,90.0504
2023-04-27T04:46:26.961Z,90.3477
2023-04-27T04:47:27.899Z,90.8587
2023-04-27T04:48:28.785Z,90.7005
2023-04-27T04:49:29.641Z,90.6981
2023-04-27T04:50:30.583Z,90.8657
2023-04-27T04:51:31.806Z,91.5216
2023-04-27T04:52:32.881Z,91.0113
2023-04-27T04:53:33.786Z,91.0338
2023-04-27T04:54:34.690Z,91.9747
2023-04-27T04:55:35.594Z,92.1100
2023-04-27T04:56:36.486Z,92.4045
2023-04-27T04:57:37.390Z,92.4436
2023-04-27T04:58:38.291Z,92.0492
2023-04-27T04:59:39.204Z,92.1727
2023-04-27T05:00:40.085Z,92.2551
2023-04-27T05:01:41.001Z,92.4536
2023-04-27T05:02:42.174Z,92.2596
2023-04-27T05:03:43.661Z,92.2823
2023-04-27T05:04:44.756Z,91.8647
2023-04-27T05:05:45.661Z,91.2605
2023-04-27T05:06:46.626Z,90.4475
2023-04-27T05:07:47.526Z,90.6001
2023-04-27T05:08:48.592Z,90.4587
2023-04-27T05:09:49.436Z,90.4507
2023-04-27T05:10:50.350Z,91.1146
2023-04-27T05:11:51.311Z,91.4358
2023-04-27T05:12:52.186Z,91.0464
2023-04-27T05:13:53.045Z,91.2811
2023-04-27T05:14:53.961Z,91.2732
2023-04-27T05:15:54.864Z,91.0318
2023-04-27T05:16:55.718Z,90.6208
2023-04-27T05:17:56.715Z,90.5549
2023-04-27T05:18:57.593Z,90.8457
2023-04-27T05:19:58.535Z,90.9591
2023-04-27T05:20:59.428Z,91.5807
2023-04-27T05:22:00.374Z,91.8207
2023-04-27T05:23:01.275Z,92.0480
2023-04-27T05:24:02.174Z,92.4790
2023-04-27T05:25:03.063Z,92.0425
2023-04-27T05:26:03.966Z,91.4753
2023-04-27T05:27:04.865Z,91.5776
2023-04-27T05:28:05.658Z,91.6234
2023-04-27T05:29:06.676Z,91.0069
2023-04-27T05:30:07.491Z,91.2168
2023-04-27T05:31:08.411Z,91.5072
2023-04-27T05:32:09.374Z,91.7657
2023-04-27T05:33:10.295Z,91.4088
2023-04-27T05:34:11.125Z,90.9047
2023-04-27T05:35:12.074Z,90.4689
2023-04-27T05:36:12.901Z,90.5835
2023-04-27T05:37:13.826Z,90.6464
2023-04-27T05:38:14.694Z,91.0344
2023-04-27T05:39:16.060Z,90.9759
2023-04-27T05:40:17.403Z,90.5484
2023-04-27T05:41:18.288Z,90.5237
2023-04-27T05:42:19.599Z,90.8559
2023-04-27T05:43:20.504Z,90.8825
2023-04-27T05:44:21.420Z,91.0898
2023-04-27T05:45:22.347Z,91.0802
2023-04-27T05:46:23.315Z,91.3256
2023-04-27T05:47:24.172Z,91.5870
2023-04-27T05:48:25.005Z,92.1497
2023-04-27T05:49:25.853Z,92.1546
2023-04-27T05:50:26.722Z,92.2884
2023-04-27T05:51:27.619Z,91.9882
2023-04-27T05:52:28.493Z,91.8973
2023-04-27T05:53:29.437Z,92.3642
2023-04-27T05:54:30.304Z,92.4193
2023-04-27T05:55:31.228Z,92.3405
2023-04-27T05:56:32.079Z,92.2894
2023-04-27T05:57:33.079Z,92.1879
2023-04-27T05:58:33.907Z,92.3712
2023-04-27T05:59:34.758Z,92.3126
2023-04-27T06:00:35.585Z,91.9259
2023-04-27T06:01:36.729Z,91.9895
2023-04-27T06:02:38.190Z,91.8491
2023-04-27T06:03:39.657Z,91.7113
2023-04-27T06:04:40.777Z,91.5394
2023-04-27T06:05:41.811Z,91.7528
2023-04-27T06:06:42.809Z,92.1182
2023-04-27T06:07:43.735Z,91.7664
2023-04-27T06:08:44.664Z,91.6299
2023-04-27T06:09:45.571Z,91.6211
2023-04-27T06:10:46.448Z,91.7580
2023-04-27T06:11:47.413Z,91.7947
2023-04-27T06:12:48.271Z,92.1632
2023-04-27T06:13:49.196Z,92.1678
2023-04-27T06:14:50.110Z,91.9517
2023-04-27T06:15:51.120Z,91.8198
2023-04-27T06:16:52.113Z,91.8561
2023-04-27T06:17:53.088Z,91.2970
2023-04-27T06:18:54.044Z,91.3481
2023-04-27T06:19:54.996Z,91.0001
2023-04-27T06:20:55.892Z,90.8108
2023-04-27T06:21:56.826Z,90.7019
2023-04-27T06:22:57.705Z,90.7544
2023-04-27T06:23:58.649Z,90.5800
2023-04-27T06:24:59.612Z,90.6467
2023-04-27T06:26:00.570Z,90.7013
2023-04-27T06:27:01.507Z,90.4354
2023-04-27T06:28:02.458Z,89.9795
2023-04-27T06:29:03.447Z,89.3378
2023-04-27T06:30:04.410Z,88.9301
2023-04-27T06:31:05.495Z,90.2384
2023-04-27T06:32:06.646Z,89.9236
2023-04-27T06:33:07.649Z,89.6171
2023-04-27T06:34:08.557Z,89.7878
2023-04-27T06:35:09.500Z,89.9315
2023-04-27T06:36:10.467Z,89.5376
2023-04-27T06:37:11.395Z,89.1925
2023-04-27T06:38:12.323Z,88.8957
2023-04-27T06:39:13.377Z,89.0703
2023-04-27T06:40:14.550Z,88.8841
2023-04-27T06:41:15.495Z,88.9264
2023-04-27T06:42:16.494Z,89.1184
2023-04-27T06:43:17.433Z,88.8454
2023-04-27T06:44:18.446Z,88.7582
2023-04-27T06:45:19.339Z,88.7082
2023-04-27T06:46:20.338Z,88.8629
2023-04-27T06:47:21.267Z,88.7231
2023-04-27T06:48:22.227Z,88.6881
2023-04-27T06:49:23.155Z,89.3559
2023-04-27T06:50:24.122Z,89.4439
2023-04-27T06:51:25.063Z,88.9674
2023-04-27T06:52:26.005Z,89.0337
2023-04-27T06:53:26.988Z,88.1384
2023-04-27T06:54:28.077Z,87.4377
2023-04-27T06:55:28.973Z,87.5429
2023-04-27T06:56:29.904Z,87.5775
2023-04-27T06:57:30.860Z,87.9834
2023-04-27T06:58:31.825Z,87.6822
2023-04-27T06:59:32.777Z,88.1455
2023-04-27T07:00:34.087Z,88.2548
2023-04-27T07:01:35.056Z,88.6926
2023-04-27T07:02:36.196Z,89.2365
2023-04-27T07:03:37.469Z,89.5985
2023-04-27T07:04:38.803Z,90.4730
2023-04-27T07:05:39.800Z,91.1433
2023-04-27T07:06:40.697Z,90.7095
2023-04-27T07:07:41.620Z,90.6568
2023-04-27T07:08:42.612Z,90.2210
2023-04-27T07:09:43.538Z,90.1995
2023-04-27T07:10:44.490Z,90.0729
2023-04-27T07:11:45.445Z,89.9609
2023-04-27T07:12:46.348Z,90.3484
2023-04-27T07:13:47.291Z,90.2662
2023-04-27T07:14:48.279Z,90.0396
2023-04-27T07:15:49.240Z,90.0523
2023-04-27T07:16:50.173Z,89.5506
2023-04-27T07:17:51.171Z,90.3136
2023-04-27T07:18:52.141Z,89.4845
2023-04-27T07:19:53.096Z,89.4505
2023-04-27T07:20:54.058Z,89.0557
2023-04-27T07:21:55.049Z,88.8778
2023-04-27T07:22:56.005Z,88.8201
2023-04-27T07:23:57.105Z,88.2420
2023-04-27T07:24:58.052Z,88.0750
2023-04-27T07:25:59.028Z,87.7292
2023-04-27T07:27:00.018Z,87.2331
2023-04-27T07:28:00.993Z,87.6391
2023-04-27T07:29:08.259Z,87.0019
2023-04-27T07:30:03.259Z,86.5608
2023-04-27T07:31:04.333Z,86.4085
2023-04-27T07:32:05.400Z,86.6097
2023-04-27T07:33:06.448Z,87.0363
2023-04-27T07:34:07.339Z,85.5704
2023-04-27T07:35:08.334Z,85.0755
2023-04-27T07:36:09.284Z,84.3510
2023-04-27T07:37:10.325Z,84.8796
2023-04-27T07:38:11.304Z,83.5916
2023-04-27T07:39:12.608Z,83.4152
2023-04-27T07:40:13.729Z,82.5671
2023-04-27T07:41:14.679Z,82.1754
2023-04-27T07:42:15.599Z,82.3170
2023-04-27T07:43:16.526Z,81.6201
2023-04-27T07:44:17.445Z,81.4374
2023-04-27T07:45:18.364Z,83.2038
2023-04-27T07:46:19.298Z,82.4657
2023-04-27T07:47:20.252Z,80.1400
2023-04-27T07:48:21.205Z,80.0142
2023-04-27T07:49:22.140Z,80.1410
2023-04-27T07:50:23.057Z,81.0387
2023-04-27T07:51:23.956Z,81.9722
2023-04-27T07:52:24.845Z,82.2343
2023-04-27T07:53:25.760Z,80.7453
2023-04-27T07:54:26.633Z,80.8489
2023-04-27T07:55:28.940Z,79.1831
2023-04-27T07:56:29.876Z,79.0098
2023-04-27T07:57:30.849Z,79.8971
2023-04-27T07:58:31.782Z,79.2999
2023-04-27T07:59:32.694Z,78.7155
2023-04-27T08:00:33.616Z,79.2757
2023-04-27T08:01:34.570Z,78.7021
2023-04-27T08:02:35.678Z,78.9964
2023-04-27T08:03:37.172Z,79.4073
2023-04-27T08:04:38.552Z,79.7106
2023-04-27T08:05:40.210Z,78.7553
2023-04-27T08:06:42.118Z,77.8399
2023-04-27T08:07:44.830Z,77.6422
2023-04-27T08:08:43.584Z,76.5122
2023-04-27T08:09:44.492Z,78.0988
2023-04-27T08:10:45.924Z,78.8121
2023-04-27T08:11:46.896Z,79.3673
2023-04-27T08:12:47.777Z,78.6637
2023-04-27T08:13:48.763Z,78.9246
2023-04-27T08:14:49.667Z,78.9685
2023-04-27T08:15:50.572Z,79.7692
2023-04-27T08:16:51.486Z,80.4365
2023-04-27T08:17:52.411Z,80.7357
2023-04-27T08:18:53.291Z,81.4434
2023-04-27T08:19:54.191Z,80.3587
2023-04-27T08:20:55.101Z,81.0905
2023-04-27T08:21:56.012Z,80.8570
2023-04-27T08:22:56.920Z,80.9486
2023-04-27T08:23:57.815Z,80.2219
2023-04-27T08:24:58.779Z,79.4270
2023-04-27T08:25:59.694Z,79.0969
2023-04-27T08:27:00.640Z,79.8959
2023-04-27T08:28:01.543Z,77.9157
2023-04-27T08:29:11.755Z,77.2202
2023-04-27T08:30:03.828Z,77.7524
2023-04-27T08:31:04.760Z,76.6511
2023-04-27T08:32:05.660Z,76.0699
2023-04-27T08:33:06.613Z,74.0803
2023-04-27T08:34:07.479Z,71.1774
2023-04-27T08:35:08.368Z,72.3061
2023-04-27T08:36:09.233Z,72.5320
2023-04-27T08:37:10.155Z,71.6576
2023-04-27T08:38:11.059Z,70.4098
2023-04-27T08:39:12.138Z,69.8475
2023-04-27T08:40:13.296Z,71.7353
2023-04-27T08:41:21.433Z,72.7945
2023-04-27T08:42:15.478Z,72.2689
2023-04-27T08:43:16.333Z,71.4906
2023-04-27T08:44:17.157Z,71.4175
2023-04-27T08:45:17.992Z,71.4317
2023-04-27T08:46:18.944Z,71.4855
2023-04-27T08:47:28.158Z,71.3398
2023-04-27T08:48:21.230Z,71.9963
2023-04-27T08:49:22.245Z,72.7795
2023-04-27T08:50:23.162Z,72.7708
2023-04-27T08:51:23.994Z,71.3152
2023-04-27T08:52:24.879Z,71.1995
2023-04-27T08:53:25.762Z,70.9505
2023-04-27T08:54:26.612Z,72.0817
2023-04-27T08:55:27.495Z,72.4017
2023-04-27T08:56:28.338Z,72.1076
2023-04-27T08:57:29.206Z,72.3264
2023-04-27T08:58:30.061Z,72.9687
2023-04-27T08:59:30.934Z,73.1037
2023-04-27T09:00:31.788Z,72.0457
2023-04-27T09:01:32.662Z,70.9954
2023-04-27T09:02:33.585Z,72.0671
2023-04-27T09:03:34.827Z,71.4205
2023-04-27T09:04:36.131Z,71.1393
2023-04-27T09:05:37.177Z,71.2901
2023-04-27T09:06:38.130Z,72.2221
2023-04-27T09:07:39.007Z,72.0402
2023-04-27T09:08:39.891Z,72.1567
2023-04-27T09:09:40.770Z,70.2542
2023-04-27T09:10:41.595Z,71.7222
2023-04-27T09:11:42.480Z,70.5576
2023-04-27T09:12:43.298Z,70.0286
2023-04-27T09:13:44.144Z,70.5970
2023-04-27T09:14:44.962Z,70.3276
2023-04-27T09:15:47.097Z,70.4508
2023-04-27T09:16:46.791Z,70.1229
2023-04-27T09:17:47.711Z,69.1499
2023-04-27T09:18:48.538Z,68.9072
2023-04-27T09:19:49.407Z,68.4070
2023-04-27T09:20:50.242Z,67.4357
2023-04-27T09:21:51.094Z,66.7489
2023-04-27T09:22:51.970Z,67.1285
2023-04-27T09:23:52.840Z,67.2915
2023-04-27T09:24:53.638Z,66.8845
2023-04-27T09:25:54.486Z,66.5118
2023-04-27T09:26:55.320Z,66.7999
2023-04-27T09:27:56.230Z,67.3681
2023-04-27T09:28:57.113Z,65.8638
2023-04-27T09:29:57.910Z,66.8157
2023-04-27T09:30:58.821Z,65.8821
2023-04-27T09:31:59.766Z,67.2346
2023-04-27T09:33:00.722Z,67.0243
2023-04-27T09:34:01.616Z,66.3586
2023-04-27T09:35:02.449Z,66.6037
2023-04-27T09:36:03.335Z,66.6024
2023-04-27T09:37:04.174Z,66.0480
2023-04-27T09:38:05.050Z,64.1674
2023-04-27T09:39:05.877Z,63.9356
2023-04-27T09:40:06.754Z,63.4896
2023-04-27T09:41:07.633Z,63.9955
2023-04-27T09:42:08.556Z,64.3257
2023-04-27T09:43:09.411Z,63.3728
2023-04-27T09:44:10.285Z,62.8084
2023-04-27T09:45:11.125Z,63.0284
2023-04-27T09:46:11.956Z,62.4111
2023-04-27T09:47:12.783Z,61.1653
2023-04-27T09:48:13.720Z,60.7498
2023-04-27T09:49:14.753Z,61.8186
2023-04-27T09:50:15.650Z,60.9939
2023-04-27T09:51:16.537Z,60.6803
2023-04-27T09:52:17.338Z,60.7724
2023-04-27T09:53:18.193Z,60.7587
2023-04-27T09:54:19.025Z,59.7398
2023-04-27T09:55:19.853Z,58.8834
2023-04-27T09:56:20.668Z,57.9026
2023-04-27T09:57:21.513Z,56.5185
2023-04-27T09:58:22.402Z,58.1532
2023-04-27T09:59:23.243Z,56.9738
2023-04-27T10:00:24.103Z,57.3829
2023-04-27T10:01:24.940Z,58.0464
2023-04-27T10:02:26.083Z,57.0592
2023-04-27T10:03:27.613Z,56.8428
2023-04-27T10:04:28.763Z,57.4728
2023-04-27T10:05:29.809Z,57.0051
2023-04-27T10:06:30.659Z,57.2555
2023-04-27T10:07:31.488Z,56.8922
2023-04-27T10:08:32.345Z,56.5848
2023-04-27T10:09:33.181Z,56.0696
2023-04-27T10:10:34.037Z,55.0955
2023-04-27T10:11:34.867Z,54.6114
2023-04-27T10:12:35.744Z,54.0259
2023-04-27T10:13:36.625Z,55.0643
2023-04-27T10:14:37.463Z,55.4752
2023-04-27T10:15:38.274Z,55.0679
2023-04-27T10:16:39.117Z,54.8977
2023-04-27T10:17:39.975Z,54.3033
2023-04-27T10:18:40.796Z,54.1070
2023-04-27T10:19:41.659Z,54.5688
2023-04-27T10:20:42.481Z,55.0642
2023-04-27T10:21:43.296Z,53.4336
2023-04-27T10:22:44.104Z,53.1893
2023-04-27T10:23:44.978Z,51.7279
2023-04-27T10:24:45.794Z,50.9345
2023-04-27T10:25:46.609Z,52.1831
2023-04-27T10:26:47.443Z,52.8829
2023-04-27T10:27:48.232Z,53.2658
2023-04-27T10:28:49.116Z,52.4564
2023-04-27T10:29:49.964Z,51.9128
2023-04-27T10:30:50.777Z,51.6770
2023-04-27T10:31:51.650Z,51.8312
2023-04-27T10:32:52.532Z,51.8341
2023-04-27T10:33:53.357Z,51.6983
2023-04-27T10:34:54.181Z,52.2859
2023-04-27T10:35:55.031Z,53.2855
2023-04-27T10:36:55.867Z,53.7307
2023-04-27T10:37:56.719Z,53.1231
2023-04-27T10:38:57.569Z,53.4444
2023-04-27T10:39:58.641Z,52.5791
2023-04-27T10:40:59.458Z,52.4646
2023-04-27T10:42:00.333Z,52.0938
2023-04-27T10:43:01.190Z,51.2556
2023-04-27T10:44:02.087Z,50.3487
2023-04-27T10:45:02.939Z,50.4626
2023-04-27T10:46:03.763Z,50.9158
2023-04-27T10:47:04.645Z,50.8460
2023-04-27T10:48:05.556Z,50.4414
2023-04-27T10:49:06.473Z,50.0895
2023-04-27T10:50:07.288Z,50.7563
2023-04-27T10:51:08.141Z,50.4985
2023-04-27T10:52:08.929Z,50.4288
2023-04-27T10:53:09.743Z,50.6797
2023-04-27T10:54:10.614Z,50.4741
2023-04-27T10:55:11.442Z,51.2200
2023-04-27T10:56:12.265Z,50.6144
2023-04-27T10:57:13.068Z,51.2069
2023-04-27T10:58:13.890Z,53.1416
2023-04-27T10:59:15.111Z,52.2656
2023-04-27T11:00:16.542Z,51.8957
2023-04-27T11:01:17.557Z,52.5743
2023-04-27T11:02:18.647Z,53.0690
2023-04-27T11:03:19.821Z,52.1358
2023-04-27T11:04:42.058Z,52.1565
2023-04-27T11:05:21.048Z,52.0535
2023-04-27T11:06:21.962Z,51.7499
2023-04-27T11:07:22.826Z,51.8221
2023-04-27T11:08:23.722Z,51.5102
2023-04-27T11:09:24.594Z,50.6421
2023-04-27T11:10:25.458Z,49.6781
2023-04-27T11:11:26.382Z,50.2262
2023-04-27T11:12:27.285Z,48.1600
2023-04-27T11:13:28.155Z,48.5501
2023-04-27T11:14:29.035Z,46.6996
2023-04-27T11:15:29.936Z,48.7947
2023-04-27T11:16:32.696Z,48.9255
2023-04-27T11:17:31.310Z,47.8425
2023-04-27T11:18:32.174Z,50.0771
2023-04-27T11:19:33.022Z,51.1525
2023-04-27T11:20:33.873Z,52.5535
2023-04-27T11:21:34.738Z,53.1707
2023-04-27T11:22:35.592Z,51.9913
2023-04-27T11:23:36.463Z,51.3960
2023-04-27T11:24:37.297Z,52.5176
2023-04-27T11:25:38.118Z,52.2901
2023-04-27T11:26:38.964Z,52.6947
2023-04-27T11:27:39.811Z,52.9311
2023-04-27T11:28:40.649Z,53.3446
2023-04-27T11:29:41.511Z,53.0630
2023-04-27T11:30:42.404Z,53.2651
2023-04-27T11:31:43.347Z,52.8394
2023-04-27T11:32:44.334Z,52.4336
2023-04-27T11:33:45.185Z,51.9806
2023-04-27T11:34:46.091Z,49.0208
2023-04-27T11:35:46.966Z,48.9654
2023-04-27T11:36:47.846Z,47.7381
2023-04-27T11:37:48.708Z,48.4740
2023-04-27T11:38:49.594Z,48.6021
2023-04-27T11:39:50.505Z,45.8861
2023-04-27T11:40:51.353Z,45.0106
2023-04-27T11:41:52.203Z,46.3435
2023-04-27T11:42:53.042Z,47.5083
2023-04-27T11:43:53.880Z,45.9073
2023-04-27T11:44:54.668Z,44.7341
2023-04-27T11:45:55.537Z,45.4882
2023-04-27T11:46:56.374Z,43.8102
2023-04-27T11:47:57.262Z,41.4413
2023-04-27T11:48:58.055Z,41.4183
2023-04-27T11:49:58.934Z,41.0806
2023-04-27T11:50:59.710Z,41.2423
2023-04-27T11:52:00.540Z,41.8638
2023-04-27T11:53:01.292Z,41.1143
2023-04-27T11:54:02.091Z,40.9722
2023-04-27T11:55:02.878Z,41.7395
2023-04-27T11:56:03.626Z,43.3788
2023-04-27T11:57:04.409Z,44.5620
2023-04-27T11:58:05.183Z,41.6584
2023-04-27T11:59:05.980Z,40.8381
2023-04-27T12:00:06.743Z,38.8860
2023-04-27T12:01:07.585Z,37.9973
2023-04-27T12:02:08.418Z,36.1947
2023-04-27T12:03:09.507Z,35.1758
2023-04-27T12:04:10.391Z,34.8303
2023-04-27T12:05:11.409Z,36.8942
2023-04-27T12:06:31.877Z,38.4176
2023-04-27T12:07:13.416Z,41.6554
2023-04-27T12:08:14.170Z,41.3719
2023-04-27T12:09:14.916Z,41.5671
2023-04-27T12:10:15.709Z,41.4658
2023-04-27T12:11:16.465Z,39.6085
2023-04-27T12:12:17.266Z,42.3618
2023-04-27T12:13:18.014Z,41.6192
2023-04-27T12:14:18.802Z,41.2250
2023-04-27T12:15:19.546Z,41.3276
2023-04-27T12:16:20.337Z,41.7990